Time;durP1;ratioP1;P1;durP2;ratioP2;P2;SDS_P1;SDS_P2;PMS_P1;PMS_P2;Temp;Humidity;BMP_temperature;BMP_pressure;BME280_temperature;BME280_humidity;BME280_pressure;Samples;Min_cycle;Max_cycle;Signal;HPM_P1;HPM_P2
2024/01/17 00:02:26;;;;;;;1999.90;999.90;;;;;;;;;;5061054;28;20191;-62
2024/01/17 00:04:54;;;;;;;1999.90;999.90;;;;;;;;;;5059119;28;20214;-62
2024/01/17 00:07:24;;;;;;;1999.90;999.90;;;;;;;;;;5060684;28;20645;-62
2024/01/17 00:09:51;;;;;;;1999.90;999.90;;;;;;;;;;5060456;28;20242;-63
2024/01/17 00:12:18;;;;;;;1999.90;999.90;;;;;;;;;;5059101;28;20190;-63
2024/01/17 00:14:46;;;;;;;1999.90;999.90;;;;;;;;;;5060061;28;20202;-64
2024/01/17 00:17:15;;;;;;;1999.90;999.90;;;;;;;;;;5058407;28;20190;-63
2024/01/17 00:19:42;;;;;;;1999.90;999.90;;;;;;;;;;5059517;28;20509;-62
2024/01/17 00:22:09;;;;;;;1999.90;999.90;;;;;;;;;;5059706;28;20293;-63
2024/01/17 00:24:37;;;;;;;1999.90;999.90;;;;;;;;;;5060492;28;20218;-62
2024/01/17 00:27:05;;;;;;;1999.90;999.90;;;;;;;;;;5057396;28;20237;-63
2024/01/17 00:29:32;;;;;;;1999.90;999.90;;;;;;;;;;5057004;28;20665;-62
2024/01/17 00:32:00;;;;;;;1999.90;999.90;;;;;;;;;;5057670;28;20582;-62
2024/01/17 00:34:29;;;;;;;1999.90;999.90;;;;;;;;;;5059043;28;20199;-63
2024/01/17 00:36:56;;;;;;;1999.90;999.90;;;;;;;;;;5059885;28;20293;-63
2024/01/17 00:39:24;;;;;;;1999.90;999.90;;;;;;;;;;5060283;28;20210;-63
2024/01/17 00:41:51;;;;;;;1999.90;999.90;;;;;;;;;;5058539;28;20194;-63
2024/01/17 00:44:21;;;;;;;1999.90;999.90;;;;;;;;;;5057856;28;20599;-63
2024/01/17 00:46:48;;;;;;;1999.90;999.90;;;;;;;;;;5056115;28;20198;-62
2024/01/17 00:49:16;;;;;;;1999.90;999.90;;;;;;;;;;5059349;28;20280;-63
2024/01/17 00:51:44;;;;;;;1999.90;999.90;;;;;;;;;;5059768;28;20199;-62
2024/01/17 00:54:12;;;;;;;1999.90;999.90;;;;;;;;;;5059688;28;20866;-63
2024/01/17 00:56:39;;;;;;;1999.90;999.90;;;;;;;;;;5057079;28;20195;-63
2024/01/17 00:59:06;;;;;;;1999.90;999.90;;;;;;;;;;5057961;28;20199;-63
2024/01/17 01:01:32;;;;;;;1999.90;999.90;;;;;;;;;;5059830;28;20203;-63
2024/01/17 01:04:00;;;;;;;1999.90;999.90;;;;;;;;;;5059267;28;20645;-64
2024/01/17 01:06:27;;;;;;;1999.90;999.90;;;;;;;;;;5055921;28;20198;-64
2024/01/17 01:08:56;;;;;;;1999.90;999.90;;;;;;;;;;5058246;28;20202;-64
2024/01/17 01:11:23;;;;;;;1999.90;999.90;;;;;;;;;;5058235;28;20234;-64
2024/01/17 01:13:50;;;;;;;1999.90;999.90;;;;;;;;;;5059377;28;20217;-63
2024/01/17 01:16:18;;;;;;;1999.90;999.90;;;;;;;;;;5055827;28;20195;-64
2024/01/17 01:18:45;;;;;;;1999.90;999.90;;;;;;;;;;5059190;28;20195;-64
2024/01/17 01:21:12;;;;;;;1999.90;999.90;;;;;;;;;;5054706;28;20569;-64
2024/01/17 01:23:39;;;;;;;1999.90;999.90;;;;;;;;;;5057947;28;20190;-63
2024/01/17 01:26:08;;;;;;;1999.90;999.90;;;;;;;;;;5055233;28;20733;-64
2024/01/17 01:28:36;;;;;;;1999.90;999.90;;;;;;;;;;5056840;28;20201;-63
2024/01/17 01:31:04;;;;;;;1999.90;999.90;;;;;;;;;;5055508;28;20225;-63
2024/01/17 01:33:32;;;;;;;1999.90;999.90;;;;;;;;;;5054924;28;20209;-64
2024/01/17 01:35:59;;;;;;;1999.90;999.90;;;;;;;;;;5058425;28;20199;-64
2024/01/17 01:38:26;;;;;;;1999.90;999.90;;;;;;;;;;5055796;28;20203;-63
2024/01/17 01:40:53;;;;;;;1999.90;999.90;;;;;;;;;;5056029;28;20210;-64
2024/01/17 01:43:23;;;;;;;1999.90;999.90;;;;;;;;;;5055844;28;21517;-63
2024/01/17 01:46:06;;;;;;;1999.90;999.90;;;;;;;;;;5054318;28;20187;-64
2024/01/17 01:48:34;;;;;;;1999.90;999.90;;;;;;;;;;5055248;28;20289;-64
2024/01/17 01:51:01;;;;;;;1999.90;999.90;;;;;;;;;;5055307;28;20253;-63
2024/01/17 01:53:30;;;;;;;1999.90;999.90;;;;;;;;;;5053952;28;20531;-64
2024/01/17 01:55:57;;;;;;;1999.90;999.90;;;;;;;;;;5055332;28;20203;-64
2024/01/17 01:58:27;;;;;;;1999.90;999.90;;;;;;;;;;5053229;28;20654;-63
2024/01/17 02:00:56;;;;;;;1999.90;999.90;;;;;;;;;;5056735;28;20203;-63
2024/01/17 02:03:25;;;;;;;1999.90;999.90;;;;;;;;;;5057038;28;20200;-63
2024/01/17 02:05:52;;;;;;;1999.90;999.90;;;;;;;;;;5054767;28;20211;-63
2024/01/17 02:08:22;;;;;;;1999.90;999.90;;;;;;;;;;5055414;28;20195;-63
2024/01/17 02:10:49;;;;;;;1999.90;999.90;;;;;;;;;;5055572;28;20238;-63
2024/01/17 02:13:18;;;;;;;1999.90;999.90;;;;;;;;;;5056029;28;20207;-63
2024/01/17 02:15:46;;;;;;;1999.90;999.90;;;;;;;;;;5053551;28;20204;-63
2024/01/17 02:18:14;;;;;;;1999.90;999.90;;;;;;;;;;5053294;28;20191;-63
2024/01/17 02:20:41;;;;;;;1999.90;999.90;;;;;;;;;;5054288;28;20234;-63
2024/01/17 02:23:22;;;;;;;1999.90;999.90;;;;;;;;;;5055498;28;20749;-63
2024/01/17 02:25:51;;;;;;;1999.90;999.90;;;;;;;;;;5055300;28;20233;-63
2024/01/17 02:28:18;;;;;;;1999.90;999.90;;;;;;;;;;5054682;28;20231;-63
2024/01/17 02:30:46;;;;;;;1999.90;999.90;;;;;;;;;;5054209;28;20218;-63
2024/01/17 02:33:14;;;;;;;1999.90;999.90;;;;;;;;;;5054227;28;20202;-63
2024/01/17 02:35:42;;;;;;;1999.90;999.90;;;;;;;;;;5054661;28;20199;-63
2024/01/17 02:38:09;;;;;;;1999.90;999.90;;;;;;;;;;5054563;28;20299;-63
2024/01/17 02:40:36;;;;;;;1999.90;999.90;;;;;;;;;;5058005;28;20199;-63
2024/01/17 02:43:05;;;;;;;1999.90;999.90;;;;;;;;;;5054816;28;20239;-63
2024/01/17 02:45:32;;;;;;;1999.90;999.90;;;;;;;;;;5054902;28;20199;-63
2024/01/17 02:48:00;;;;;;;1999.90;999.90;;;;;;;;;;5057580;28;20195;-63
2024/01/17 02:50:28;;;;;;;1999.90;999.90;;;;;;;;;;5054808;28;20222;-63
2024/01/17 02:52:55;;;;;;;1999.90;999.90;;;;;;;;;;5055230;28;20206;-64
2024/01/17 02:55:23;;;;;;;1999.90;999.90;;;;;;;;;;5053210;28;20190;-63
2024/01/17 02:57:52;;;;;;;1999.90;999.90;;;;;;;;;;5053608;28;20293;-64
2024/01/17 03:00:21;;;;;;;1999.90;999.90;;;;;;;;;;5054547;28;20575;-63
2024/01/17 03:02:49;;;;;;;1999.90;999.90;;;;;;;;;;5054482;28;20290;-63
2024/01/17 03:05:17;;;;;;;1999.90;999.90;;;;;;;;;;5054104;28;20207;-63
2024/01/17 03:07:44;;;;;;;1999.90;999.90;;;;;;;;;;5052716;28;20213;-63
2024/01/17 03:10:13;;;;;;;1999.90;999.90;;;;;;;;;;5055182;28;20189;-63
2024/01/17 03:12:40;;;;;;;1999.90;999.90;;;;;;;;;;5054916;28;20195;-64
2024/01/17 03:15:10;;;;;;;1999.90;999.90;;;;;;;;;;5054223;28;20206;-63
2024/01/17 03:17:39;;;;;;;1999.90;999.90;;;;;;;;;;5055645;28;20186;-63
2024/01/17 03:20:10;;;;;;;1999.90;999.90;;;;;;;;;;5058133;28;20195;-63
2024/01/17 03:22:39;;;;;;;1999.90;999.90;;;;;;;;;;5060028;28;20281;-63
2024/01/17 03:25:08;;;;;;;1999.90;999.90;;;;;;;;;;5058090;28;20792;-63
2024/01/17 03:27:36;;;;;;;1999.90;999.90;;;;;;;;;;5058836;28;20255;-63
2024/01/17 03:30:03;;;;;;;1999.90;999.90;;;;;;;;;;5056705;28;20198;-63
2024/01/17 03:32:31;;;;;;;1999.90;999.90;;;;;;;;;;5058537;28;20584;-63
2024/01/17 03:35:00;;;;;;;1999.90;999.90;;;;;;;;;;5058854;28;20686;-63
2024/01/17 03:37:28;;;;;;;1999.90;999.90;;;;;;;;;;5057945;28;20195;-63
2024/01/17 03:39:55;;;;;;;1999.90;999.90;;;;;;;;;;5057675;28;20728;-63
2024/01/17 03:42:22;;;;;;;1999.90;999.90;;;;;;;;;;5058768;28;20207;-63
2024/01/17 03:44:50;;;;;;;1999.90;999.90;;;;;;;;;;5057952;28;20343;-63
2024/01/17 03:47:17;;;;;;;1999.90;999.90;;;;;;;;;;5056668;28;20200;-64
2024/01/17 03:49:45;;;;;;;1999.90;999.90;;;;;;;;;;5056447;28;20205;-63
2024/01/17 03:52:13;;;;;;;1999.90;999.90;;;;;;;;;;5057976;28;21150;-64
2024/01/17 03:54:41;;;;;;;1999.90;999.90;;;;;;;;;;5058431;28;20187;-63
2024/01/17 03:57:08;;;;;;;1999.90;999.90;;;;;;;;;;5058632;28;20221;-64
2024/01/17 03:59:36;;;;;;;1999.90;999.90;;;;;;;;;;5060044;28;20198;-64
2024/01/17 04:02:04;;;;;;;1999.90;999.90;;;;;;;;;;5077616;28;20210;-63
2024/01/17 04:04:31;;;;;;;1999.90;999.90;;;;;;;;;;5068657;28;20203;-63
2024/01/17 04:06:58;;;;;;;1999.90;999.90;;;;;;;;;;5059148;28;20214;-63
2024/01/17 04:09:27;;;;;;;1999.90;999.90;;;;;;;;;;5058546;28;20657;-63
2024/01/17 04:11:54;;;;;;;1999.90;999.90;;;;;;;;;;5060369;28;20566;-64
2024/01/17 04:14:21;;;;;;;1999.90;999.90;;;;;;;;;;5061487;28;20191;-63
2024/01/17 04:16:49;;;;;;;1999.90;999.90;;;;;;;;;;5056691;28;20285;-63
2024/01/17 04:19:16;;;;;;;1999.90;999.90;;;;;;;;;;5056564;28;20209;-63
2024/01/17 04:21:43;;;;;;;1999.90;999.90;;;;;;;;;;5056781;28;20194;-64
2024/01/17 04:24:11;;;;;;;1999.90;999.90;;;;;;;;;;5055643;28;20631;-63
2024/01/17 04:26:39;;;;;;;1999.90;999.90;;;;;;;;;;5057996;28;20604;-63
2024/01/17 04:29:07;;;;;;;1999.90;999.90;;;;;;;;;;5055936;28;20191;-64
2024/01/17 04:31:34;;;;;;;1999.90;999.90;;;;;;;;;;5056383;28;20222;-64
2024/01/17 04:34:02;;;;;;;1999.90;999.90;;;;;;;;;;5057786;28;20186;-64
2024/01/17 04:36:30;;;;;;;1999.90;999.90;;;;;;;;;;5056759;28;20203;-64
2024/01/17 04:38:57;;;;;;;1999.90;999.90;;;;;;;;;;5057803;28;20210;-63
2024/01/17 04:41:25;;;;;;;1999.90;999.90;;;;;;;;;;5055533;28;20664;-63
2024/01/17 04:43:53;;;;;;;1999.90;999.90;;;;;;;;;;5058600;28;20202;-63
2024/01/17 04:46:22;;;;;;;1999.90;999.90;;;;;;;;;;5057457;28;20191;-62
2024/01/17 04:48:49;;;;;;;1999.90;999.90;;;;;;;;;;5056467;28;20199;-63
2024/01/17 04:51:16;;;;;;;1999.90;999.90;;;;;;;;;;5054767;28;20280;-63
2024/01/17 04:53:44;;;;;;;1999.90;999.90;;;;;;;;;;5057273;28;20191;-63
2024/01/17 04:56:13;;;;;;;1999.90;999.90;;;;;;;;;;5055919;28;20214;-62
2024/01/17 04:58:40;;;;;;;1999.90;999.90;;;;;;;;;;5058470;28;20198;-63
2024/01/17 05:01:09;;;;;;;1999.90;999.90;;;;;;;;;;5056916;28;21476;-63
2024/01/17 05:03:37;;;;;;;1999.90;999.90;;;;;;;;;;5061438;28;20198;-63
2024/01/17 05:06:04;;;;;;;1999.90;999.90;;;;;;;;;;5070423;28;20219;-63
2024/01/17 05:08:32;;;;;;;1999.90;999.90;;;;;;;;;;5069669;28;20206;-64
2024/01/17 05:11:00;;;;;;;1999.90;999.90;;;;;;;;;;5058083;28;20672;-64
2024/01/17 05:13:28;;;;;;;1999.90;999.90;;;;;;;;;;5056233;28;20290;-63
2024/01/17 05:15:55;;;;;;;1999.90;999.90;;;;;;;;;;5056069;28;20228;-64
2024/01/17 05:18:24;;;;;;;1999.90;999.90;;;;;;;;;;5056700;28;20206;-64
2024/01/17 05:20:51;;;;;;;1999.90;999.90;;;;;;;;;;5055876;28;20198;-64
2024/01/17 05:23:18;;;;;;;1999.90;999.90;;;;;;;;;;5062035;28;20831;-64
2024/01/17 05:25:45;;;;;;;1999.90;999.90;;;;;;;;;;5056486;28;20206;-64
2024/01/17 05:28:13;;;;;;;1999.90;999.90;;;;;;;;;;5056354;28;20222;-64
2024/01/17 05:30:40;;;;;;;1999.90;999.90;;;;;;;;;;5055809;28;20218;-64
2024/01/17 05:33:07;;;;;;;1999.90;999.90;;;;;;;;;;5057658;28;20701;-64
2024/01/17 05:35:36;;;;;;;1999.90;999.90;;;;;;;;;;5055578;28;20208;-64
2024/01/17 05:38:04;;;;;;;1999.90;999.90;;;;;;;;;;5054425;28;20791;-64
2024/01/17 05:40:31;;;;;;;1999.90;999.90;;;;;;;;;;5057235;28;20199;-64
2024/01/17 05:43:00;;;;;;;1999.90;999.90;;;;;;;;;;5056321;28;20202;-65
2024/01/17 05:45:27;;;;;;;1999.90;999.90;;;;;;;;;;5055234;28;20203;-64
2024/01/17 05:47:55;;;;;;;1999.90;999.90;;;;;;;;;;5055277;28;20225;-64
2024/01/17 05:50:22;;;;;;;1999.90;999.90;;;;;;;;;;5056885;28;20193;-64
2024/01/17 05:52:51;;;;;;;1999.90;999.90;;;;;;;;;;5056817;28;20225;-64
2024/01/17 05:55:19;;;;;;;1999.90;999.90;;;;;;;;;;5054399;28;20206;-64
2024/01/17 05:57:47;;;;;;;1999.90;999.90;;;;;;;;;;5056957;28;20198;-64
2024/01/17 06:00:15;;;;;;;1999.90;999.90;;;;;;;;;;5055827;28;20207;-64
2024/01/17 06:02:43;;;;;;;1999.90;999.90;;;;;;;;;;5055192;28;20526;-65
2024/01/17 06:05:11;;;;;;;1999.90;999.90;;;;;;;;;;5055195;28;20249;-64
2024/01/17 06:07:39;;;;;;;1999.90;999.90;;;;;;;;;;5055105;28;20224;-64
2024/01/17 06:10:13;;;;;;;1999.90;999.90;;;;;;;;;;5051758;28;20204;-64
2024/01/17 06:12:40;;;;;;;1999.90;999.90;;;;;;;;;;5053077;28;20276;-64
2024/01/17 06:15:08;;;;;;;1999.90;999.90;;;;;;;;;;5053734;28;20546;-65
2024/01/17 06:17:35;;;;;;;1999.90;999.90;;;;;;;;;;5082019;28;20210;-63
2024/01/17 06:20:03;;;;;;;1999.90;999.90;;;;;;;;;;5082795;28;20213;-64
2024/01/17 06:22:30;;;;;;;1999.90;999.90;;;;;;;;;;5082710;28;20191;-65
2024/01/17 06:24:58;;;;;;;1999.90;999.90;;;;;;;;;;5082384;28;20201;-64
2024/01/17 06:27:27;;;;;;;1999.90;999.90;;;;;;;;;;5081515;28;20245;-64
2024/01/17 06:29:54;;;;;;;1999.90;999.90;;;;;;;;;;5081862;28;20228;-64
2024/01/17 06:32:22;;;;;;;1999.90;999.90;;;;;;;;;;5083848;28;20253;-65
2024/01/17 06:34:49;;;;;;;1999.90;999.90;;;;;;;;;;5079534;28;20286;-65
2024/01/17 06:37:16;;;;;;;1999.90;999.90;;;;;;;;;;5081801;28;20576;-64
2024/01/17 06:39:44;;;;;;;1999.90;999.90;;;;;;;;;;5083033;28;20289;-64
2024/01/17 06:42:11;;;;;;;1999.90;999.90;;;;;;;;;;5082632;28;20190;-64
2024/01/17 06:44:41;;;;;;;1999.90;999.90;;;;;;;;;;5083094;28;20213;-64
2024/01/17 06:47:08;;;;;;;1999.90;999.90;;;;;;;;;;5080282;28;20209;-65
2024/01/17 06:49:35;;;;;;;1999.90;999.90;;;;;;;;;;5082930;28;20190;-65
2024/01/17 06:52:03;;;;;;;1999.90;999.90;;;;;;;;;;5082933;28;20221;-65
2024/01/17 06:54:31;;;;;;;1999.90;999.90;;;;;;;;;;5088217;28;20659;-65
2024/01/17 06:56:58;;;;;;;1999.90;999.90;;;;;;;;;;5086948;28;20895;-64
2024/01/17 06:59:25;;;;;;;1999.90;999.90;;;;;;;;;;5089826;28;20227;-65
2024/01/17 07:01:55;;;;;;;1999.90;999.90;;;;;;;;;;5089337;28;20212;-64
2024/01/17 07:04:22;;;;;;;1999.90;999.90;;;;;;;;;;5089571;28;20186;-64
2024/01/17 07:06:49;;;;;;;1999.90;999.90;;;;;;;;;;5085399;28;20190;-64
2024/01/17 07:09:17;;;;;;;1999.90;999.90;;;;;;;;;;5080984;28;20203;-64
2024/01/17 07:11:44;;;;;;;1999.90;999.90;;;;;;;;;;5082793;28;20229;-65
2024/01/17 07:14:12;;;;;;;1999.90;999.90;;;;;;;;;;5089355;28;20626;-65
2024/01/17 07:16:39;;;;;;;1999.90;999.90;;;;;;;;;;5087512;28;20209;-64
2024/01/17 07:19:11;;;;;;;1999.90;999.90;;;;;;;;;;5085445;28;20198;-64
2024/01/17 07:21:42;;;;;;;1999.90;999.90;;;;;;;;;;5079232;28;20202;-65
2024/01/17 07:24:10;;;;;;;1999.90;999.90;;;;;;;;;;5083424;28;20190;-65
2024/01/17 07:26:38;;;;;;;1999.90;999.90;;;;;;;;;;5082798;28;20280;-65
2024/01/17 07:29:05;;;;;;;1999.90;999.90;;;;;;;;;;5075786;28;20202;-65
2024/01/17 07:31:34;;;;;;;1999.90;999.90;;;;;;;;;;5080593;28;20198;-65
2024/01/17 07:34:02;;;;;;;1999.90;999.90;;;;;;;;;;5077629;28;20202;-65
2024/01/17 07:36:31;;;;;;;1999.90;999.90;;;;;;;;;;5079010;28;20201;-65
2024/01/17 07:38:59;;;;;;;1999.90;999.90;;;;;;;;;;5074375;28;20225;-65
2024/01/17 07:41:26;;;;;;;1999.90;999.90;;;;;;;;;;5083356;28;20209;-66
2024/01/17 07:43:55;;;;;;;1999.90;999.90;;;;;;;;;;5089319;28;20201;-65
2024/01/17 07:46:25;;;;;;;1999.90;999.90;;;;;;;;;;5088898;28;20575;-65
2024/01/17 07:48:53;;;;;;;1999.90;999.90;;;;;;;;;;5078033;28;20190;-65
2024/01/17 07:51:20;;;;;;;1999.90;999.90;;;;;;;;;;5088924;28;20198;-65
2024/01/17 07:53:49;;;;;;;1999.90;999.90;;;;;;;;;;5089736;28;20965;-65
2024/01/17 07:56:16;;;;;;;1999.90;999.90;;;;;;;;;;5086890;28;20935;-65
2024/01/17 07:58:43;;;;;;;1999.90;999.90;;;;;;;;;;5088685;28;20194;-65
2024/01/17 08:01:11;;;;;;;1999.90;999.90;;;;;;;;;;5088132;28;20195;-65
2024/01/17 08:03:40;;;;;;;1999.90;999.90;;;;;;;;;;5089245;28;20206;-65
2024/01/17 08:06:09;;;;;;;1999.90;999.90;;;;;;;;;;5084856;28;20211;-65
2024/01/17 08:08:37;;;;;;;1999.90;999.90;;;;;;;;;;5083667;28;20235;-65
2024/01/17 08:11:05;;;;;;;1999.90;999.90;;;;;;;;;;5085375;28;20248;-66
2024/01/17 08:13:34;;;;;;;1999.90;999.90;;;;;;;;;;5084777;28;20309;-65
2024/01/17 08:16:01;;;;;;;1999.90;999.90;;;;;;;;;;5082920;28;20258;-65
2024/01/17 08:18:29;;;;;;;1999.90;999.90;;;;;;;;;;5085769;28;20205;-66
2024/01/17 08:20:57;;;;;;;1999.90;999.90;;;;;;;;;;5084782;28;20204;-66
2024/01/17 08:23:24;;;;;;;1999.90;999.90;;;;;;;;;;5084359;28;20198;-65
2024/01/17 08:25:52;;;;;;;1999.90;999.90;;;;;;;;;;5083555;28;20194;-66
2024/01/17 08:28:20;;;;;;;1999.90;999.90;;;;;;;;;;5087132;28;21151;-66
2024/01/17 08:30:48;;;;;;;1999.90;999.90;;;;;;;;;;5100071;28;20252;-66
2024/01/17 08:33:16;;;;;;;1999.90;999.90;;;;;;;;;;5083420;28;20218;-65
2024/01/17 08:35:43;;;;;;;1999.90;999.90;;;;;;;;;;5083902;28;20257;-65
2024/01/17 08:38:11;;;;;;;1999.90;999.90;;;;;;;;;;5083060;28;20191;-65
2024/01/17 08:40:38;;;;;;;1999.90;999.90;;;;;;;;;;5073146;28;20199;-65
2024/01/17 08:43:06;;;;;;;1999.90;999.90;;;;;;;;;;5081105;28;20195;-65
2024/01/17 08:45:34;;;;;;;1999.90;999.90;;;;;;;;;;5081764;28;20199;-65
2024/01/17 08:48:02;;;;;;;1999.90;999.90;;;;;;;;;;5073149;28;20637;-65
2024/01/17 08:50:29;;;;;;;1999.90;999.90;;;;;;;;;;5084240;28;20196;-67
2024/01/17 08:52:57;;;;;;;1999.90;999.90;;;;;;;;;;5085011;28;20299;-67
2024/01/17 08:55:24;;;;;;;1999.90;999.90;;;;;;;;;;5081086;28;20199;-66
2024/01/17 08:57:51;;;;;;;1999.90;999.90;;;;;;;;;;5085040;28;20217;-68
2024/01/17 09:00:19;;;;;;;1999.90;999.90;;;;;;;;;;5083697;28;20218;-66
2024/01/17 09:02:47;;;;;;;1999.90;999.90;;;;;;;;;;5083757;28;20637;-66
2024/01/17 09:05:16;;;;;;;1999.90;999.90;;;;;;;;;;5082571;28;20313;-66
2024/01/17 09:07:43;;;;;;;1999.90;999.90;;;;;;;;;;5081218;28;20677;-67
2024/01/17 09:10:13;;;;;;;1999.90;999.90;;;;;;;;;;5085391;28;20199;-66
2024/01/17 09:12:40;;;;;;;1999.90;999.90;;;;;;;;;;5084408;28;20219;-66
2024/01/17 09:15:08;;;;;;;1999.90;999.90;;;;;;;;;;5083259;28;20697;-66
2024/01/17 09:17:36;;;;;;;1999.90;999.90;;;;;;;;;;5084101;28;20210;-66
2024/01/17 09:20:06;;;;;;;1999.90;999.90;;;;;;;;;;5084312;28;20198;-67
2024/01/17 09:22:33;;;;;;;1999.90;999.90;;;;;;;;;;5084255;28;20186;-66
2024/01/17 09:25:01;;;;;;;1999.90;999.90;;;;;;;;;;5082591;28;20201;-66
2024/01/17 09:27:29;;;;;;;1999.90;999.90;;;;;;;;;;5084280;28;20231;-67
2024/01/17 09:29:56;;;;;;;1999.90;999.90;;;;;;;;;;5080517;28;20206;-66
2024/01/17 09:32:24;;;;;;;1999.90;999.90;;;;;;;;;;5083525;28;20317;-67
2024/01/17 09:34:51;;;;;;;1999.90;999.90;;;;;;;;;;5083750;28;20557;-66
2024/01/17 09:37:20;;;;;;;1999.90;999.90;;;;;;;;;;5085750;28;20193;-67
2024/01/17 09:39:47;;;;;;;1999.90;999.90;;;;;;;;;;5085399;28;20306;-67
2024/01/17 09:42:15;;;;;;;1999.90;999.90;;;;;;;;;;5085312;28;20199;-67
2024/01/17 09:44:42;;;;;;;1999.90;999.90;;;;;;;;;;5074312;28;20262;-67
2024/01/17 09:47:11;;;;;;;1999.90;999.90;;;;;;;;;;5083208;28;20203;-67
2024/01/17 09:49:39;;;;;;;1999.90;999.90;;;;;;;;;;5082515;28;20198;-67
2024/01/17 09:52:07;;;;;;;1999.90;999.90;;;;;;;;;;5063824;28;20207;-67
2024/01/17 09:54:38;;;;;;;1999.90;999.90;;;;;;;;;;5078035;28;20205;-68
2024/01/17 09:57:08;;;;;;;1999.90;999.90;;;;;;;;;;5084609;28;20192;-68
2024/01/17 09:59:35;;;;;;;1999.90;999.90;;;;;;;;;;5085130;28;20384;-68
2024/01/17 10:02:03;;;;;;;1999.90;999.90;;;;;;;;;;5083605;28;20547;-68
2024/01/17 10:04:30;;;;;;;1999.90;999.90;;;;;;;;;;5084169;28;20565;-68
2024/01/17 10:06:58;;;;;;;1999.90;999.90;;;;;;;;;;5084978;28;20199;-68
2024/01/17 10:09:26;;;;;;;1999.90;999.90;;;;;;;;;;5082729;28;20184;-68
2024/01/17 10:11:55;;;;;;;1999.90;999.90;;;;;;;;;;5085144;28;20200;-68
2024/01/17 10:14:24;;;;;;;1999.90;999.90;;;;;;;;;;5070362;28;20318;-67
2024/01/17 10:16:51;;;;;;;1999.90;999.90;;;;;;;;;;5084303;28;20207;-68
2024/01/17 10:19:19;;;;;;;1999.90;999.90;;;;;;;;;;5081698;28;20650;-67
2024/01/17 10:21:46;;;;;;;1999.90;999.90;;;;;;;;;;5084039;28;20205;-68
2024/01/17 10:24:13;;;;;;;1999.90;999.90;;;;;;;;;;5084725;28;20199;-67
2024/01/17 10:26:42;;;;;;;1999.90;999.90;;;;;;;;;;5082370;28;20319;-68
2024/01/17 10:29:11;;;;;;;1999.90;999.90;;;;;;;;;;5083553;28;21058;-68
2024/01/17 10:31:40;;;;;;;1999.90;999.90;;;;;;;;;;5083757;28;20907;-67
2024/01/17 10:34:07;;;;;;;1999.90;999.90;;;;;;;;;;5084219;28;20233;-68
2024/01/17 10:36:35;;;;;;;1999.90;999.90;;;;;;;;;;5083104;28;20241;-67
2024/01/17 10:39:04;;;;;;;1999.90;999.90;;;;;;;;;;5084139;28;20549;-67
2024/01/17 10:41:32;;;;;;;1999.90;999.90;;;;;;;;;;5083026;28;20194;-66
2024/01/17 10:44:02;;;;;;;1999.90;999.90;;;;;;;;;;5075491;28;20193;-67
2024/01/17 10:46:33;;;;;;;1999.90;999.90;;;;;;;;;;5077956;28;20767;-68
2024/01/17 10:49:00;;;;;;;1999.90;999.90;;;;;;;;;;5081812;28;20184;-67
2024/01/17 10:51:27;;;;;;;1999.90;999.90;;;;;;;;;;5084660;28;20216;-68
2024/01/17 10:53:55;;;;;;;1999.90;999.90;;;;;;;;;;5084606;28;20297;-67
2024/01/17 10:56:25;;;;;;;1999.90;999.90;;;;;;;;;;5083804;28;20204;-66
2024/01/17 10:58:53;;;;;;;1999.90;999.90;;;;;;;;;;5082778;28;20195;-67
2024/01/17 11:01:26;;;;;;;1999.90;999.90;;;;;;;;;;5084048;28;20271;-68
2024/01/17 11:03:55;;;;;;;1999.90;999.90;;;;;;;;;;5084679;28;20199;-67
2024/01/17 11:06:23;;;;;;;1999.90;999.90;;;;;;;;;;5081189;28;20199;-68
2024/01/17 11:08:52;;;;;;;1999.90;999.90;;;;;;;;;;5080065;28;20627;-67
2024/01/17 11:11:20;;;;;;;1999.90;999.90;;;;;;;;;;5082088;28;20199;-67
2024/01/17 11:13:48;;;;;;;1999.90;999.90;;;;;;;;;;5083239;28;20299;-68
2024/01/17 11:16:16;;;;;;;1999.90;999.90;;;;;;;;;;5080937;28;20203;-66
2024/01/17 11:18:46;;;;;;;1999.90;999.90;;;;;;;;;;5083484;28;20235;-67
2024/01/17 11:21:14;;;;;;;1999.90;999.90;;;;;;;;;;5082907;28;20197;-67
2024/01/17 11:23:44;;;;;;;1999.90;999.90;;;;;;;;;;5081089;28;20197;-67
2024/01/17 11:26:14;;;;;;;1999.90;999.90;;;;;;;;;;5071873;28;20650;-68
2024/01/17 11:28:46;;;;;;;1999.90;999.90;;;;;;;;;;5082422;28;20237;-68
2024/01/17 11:31:22;;;;;;;1999.90;999.90;;;;;;;;;;5080832;28;20739;-67
2024/01/17 11:33:50;;;;;;;1999.90;999.90;;;;;;;;;;5082679;28;20206;-67
2024/01/17 11:36:36;;;;;;;1999.90;999.90;;;;;;;;;;5082338;28;20202;-67
2024/01/17 11:39:06;;;;;;;1999.90;999.90;;;;;;;;;;5083230;28;20206;-68
2024/01/17 11:41:34;;;;;;;1999.90;999.90;;;;;;;;;;5085964;28;20238;-68
2024/01/17 11:44:01;;;;;;;1999.90;999.90;;;;;;;;;;5087471;28;20580;-68
2024/01/17 11:46:28;;;;;;;1999.90;999.90;;;;;;;;;;5081234;28;20198;-68
2024/01/17 11:48:56;;;;;;;1999.90;999.90;;;;;;;;;;5085604;28;20564;-68
2024/01/17 11:51:26;;;;;;;1999.90;999.90;;;;;;;;;;5086920;28;20242;-68
2024/01/17 11:53:53;;;;;;;1999.90;999.90;;;;;;;;;;5085110;28;20216;-69
2024/01/17 11:56:22;;;;;;;1999.90;999.90;;;;;;;;;;5052005;28;20199;-69
2024/01/17 11:58:51;;;;;;;1999.90;999.90;;;;;;;;;;5075077;28;20200;-68
2024/01/17 12:01:19;;;;;;;1999.90;999.90;;;;;;;;;;5086702;28;20224;-68
2024/01/17 12:03:47;;;;;;;1999.90;999.90;;;;;;;;;;5076081;28;20371;-68
2024/01/17 12:06:15;;;;;;;1999.90;999.90;;;;;;;;;;5082809;28;20208;-68
2024/01/17 12:08:43;;;;;;;1999.90;999.90;;;;;;;;;;5075451;28;20624;-69
2024/01/17 12:11:10;;;;;;;1999.90;999.90;;;;;;;;;;5070250;28;20196;-68
2024/01/17 12:13:39;;;;;;;1999.90;999.90;;;;;;;;;;5086108;28;20235;-69
2024/01/17 12:16:07;;;;;;;1999.90;999.90;;;;;;;;;;5085196;28;20267;-69
2024/01/17 12:18:35;;;;;;;1999.90;999.90;;;;;;;;;;5087005;28;20277;-69
2024/01/17 12:21:02;;;;;;;1999.90;999.90;;;;;;;;;;5085944;28;20198;-68
2024/01/17 12:23:31;;;;;;;1999.90;999.90;;;;;;;;;;5087418;28;20202;-67
2024/01/17 12:25:59;;;;;;;1999.90;999.90;;;;;;;;;;5085101;28;20746;-69
2024/01/17 12:28:28;;;;;;;1999.90;999.90;;;;;;;;;;5083706;28;20277;-69
2024/01/17 12:30:58;;;;;;;1999.90;999.90;;;;;;;;;;5073177;28;20200;-69
2024/01/17 12:33:26;;;;;;;1999.90;999.90;;;;;;;;;;5070989;28;20228;-69
2024/01/17 12:35:53;;;;;;;1999.90;999.90;;;;;;;;;;5076565;28;20201;-68
2024/01/17 12:38:21;;;;;;;1999.90;999.90;;;;;;;;;;5072430;28;20704;-68
2024/01/17 12:40:49;;;;;;;1999.90;999.90;;;;;;;;;;5086573;28;20203;-70
2024/01/17 12:43:18;;;;;;;1999.90;999.90;;;;;;;;;;5068093;28;20197;-69
2024/01/17 12:45:46;;;;;;;1999.90;999.90;;;;;;;;;;5072905;28;20258;-70
2024/01/17 12:48:15;;;;;;;1999.90;999.90;;;;;;;;;;5084842;28;20276;-69
2024/01/17 12:50:47;;;;;;;1999.90;999.90;;;;;;;;;;5083685;28;20210;-70
2024/01/17 12:53:17;;;;;;;1999.90;999.90;;;;;;;;;;5082301;28;20201;-70
2024/01/17 12:55:44;;;;;;;1999.90;999.90;;;;;;;;;;5084157;28;20197;-70
2024/01/17 12:58:12;;;;;;;1999.90;999.90;;;;;;;;;;5084399;28;20276;-70
2024/01/17 13:00:40;;;;;;;1999.90;999.90;;;;;;;;;;5083684;28;20214;-70
2024/01/17 13:03:09;;;;;;;1999.90;999.90;;;;;;;;;;5064842;28;20187;-70
2024/01/17 13:05:38;;;;;;;1999.90;999.90;;;;;;;;;;5064432;28;20238;-70
2024/01/17 13:08:09;;;;;;;1999.90;999.90;;;;;;;;;;5082880;28;20194;-70
2024/01/17 13:10:37;;;;;;;1999.90;999.90;;;;;;;;;;5072149;28;20214;-70
2024/01/17 13:13:05;;;;;;;1999.90;999.90;;;;;;;;;;5078824;28;20220;-70
2024/01/17 13:15:32;;;;;;;1999.90;999.90;;;;;;;;;;5057306;28;20225;-69
2024/01/17 13:18:00;;;;;;;1999.90;999.90;;;;;;;;;;5053079;28;20293;-69
2024/01/17 13:20:30;;;;;;;1999.90;999.90;;;;;;;;;;5053786;28;20309;-69
2024/01/17 13:22:59;;;;;;;1999.90;999.90;;;;;;;;;;5053735;28;20206;-64
2024/01/17 13:25:26;;;;;;;1999.90;999.90;;;;;;;;;;5055514;28;20240;-70
2024/01/17 13:27:58;;;;;;;1999.90;999.90;;;;;;;;;;5055181;28;20236;-71
2024/01/17 13:30:25;;;;;;;1999.90;999.90;;;;;;;;;;5055421;28;20263;-69
2024/01/17 13:32:53;;;;;;;1999.90;999.90;;;;;;;;;;5052944;28;21559;-68
2024/01/17 13:35:20;;;;;;;1999.90;999.90;;;;;;;;;;5053286;28;20318;-70
2024/01/17 13:37:48;;;;;;;1999.90;999.90;;;;;;;;;;5055521;28;20226;-70
2024/01/17 13:40:18;;;;;;;1999.90;999.90;;;;;;;;;;5054909;28;20257;-70
2024/01/17 13:42:45;;;;;;;1999.90;999.90;;;;;;;;;;5056109;28;20206;-69
2024/01/17 13:45:13;;;;;;;1999.90;999.90;;;;;;;;;;5054968;28;20235;-67
2024/01/17 13:47:41;;;;;;;1999.90;999.90;;;;;;;;;;5054695;28;20648;-69